sensor_id;sensor_type;location;lat;lon;timestamp;P1;durP1;ratioP1;P2;durP2;ratioP2
65275;SDS011;51875;49.994;14.052;2023-06-22T00:00:49;6.78;;;4.82;;
65275;SDS011;51875;49.994;14.052;2023-06-22T00:02:19;5.60;;;4.10;;
65275;SDS011;51875;49.994;14.052;2023-06-22T00:03:35;6.63;;;4.50;;
65275;SDS011;51875;49.994;14.052;2023-06-22T00:04:50;7.25;;;4.68;;
65275;SDS011;51875;49.994;14.052;2023-06-22T00:06:05;5.72;;;4.15;;
65275;SDS011;51875;49.994;14.052;2023-06-22T00:07:21;6.22;;;4.25;;
65275;SDS011;51875;49.994;14.052;2023-06-22T00:08:37;8.32;;;4.45;;
65275;SDS011;51875;49.994;14.052;2023-06-22T00:09:52;7.28;;;4.90;;
65275;SDS011;51875;49.994;14.052;2023-06-22T00:11:08;5.90;;;4.30;;
65275;SDS011;51875;49.994;14.052;2023-06-22T00:12:23;8.00;;;4.72;;
65275;SDS011;51875;49.994;14.052;2023-06-22T00:13:39;8.18;;;4.50;;
65275;SDS011;51875;49.994;14.052;2023-06-22T00:14:55;7.53;;;4.82;;
65275;SDS011;51875;49.994;14.052;2023-06-22T00:16:10;10.20;;;4.88;;
65275;SDS011;51875;49.994;14.052;2023-06-22T00:17:26;9.85;;;4.90;;
65275;SDS011;51875;49.994;14.052;2023-06-22T00:18:41;5.93;;;4.35;;
65275;SDS011;51875;49.994;14.052;2023-06-22T00:20:02;7.00;;;4.47;;
65275;SDS011;51875;49.994;14.052;2023-06-22T00:21:21;9.55;;;4.53;;
65275;SDS011;51875;49.994;14.052;2023-06-22T00:22:36;6.60;;;4.47;;
65275;SDS011;51875;49.994;14.052;2023-06-22T00:23:53;5.85;;;4.18;;
65275;SDS011;51875;49.994;14.052;2023-06-22T00:25:09;4.60;;;3.83;;
65275;SDS011;51875;49.994;14.052;2023-06-22T00:26:25;5.55;;;3.83;;
65275;SDS011;51875;49.994;14.052;2023-06-22T00:27:41;5.90;;;3.85;;
65275;SDS011;51875;49.994;14.052;2023-06-22T00:28:56;7.22;;;4.45;;
65275;SDS011;51875;49.994;14.052;2023-06-22T00:30:12;6.07;;;4.45;;
65275;SDS011;51875;49.994;14.052;2023-06-22T00:31:28;8.07;;;4.35;;
65275;SDS011;51875;49.994;14.052;2023-06-22T00:32:44;7.25;;;4.57;;
65275;SDS011;51875;49.994;14.052;2023-06-22T00:34:00;7.50;;;3.90;;
65275;SDS011;51875;49.994;14.052;2023-06-22T00:35:15;8.80;;;4.63;;
65275;SDS011;51875;49.994;14.052;2023-06-22T00:36:31;6.18;;;4.25;;
65275;SDS011;51875;49.994;14.052;2023-06-22T00:37:46;7.20;;;4.20;;
65275;SDS011;51875;49.994;14.052;2023-06-22T00:39:02;7.13;;;4.50;;
65275;SDS011;51875;49.994;14.052;2023-06-22T00:40:19;9.15;;;4.43;;
65275;SDS011;51875;49.994;14.052;2023-06-22T00:41:36;8.77;;;4.82;;
65275;SDS011;51875;49.994;14.052;2023-06-22T00:42:52;8.85;;;4.90;;
65275;SDS011;51875;49.994;14.052;2023-06-22T00:44:07;7.63;;;4.50;;
65275;SDS011;51875;49.994;14.052;2023-06-22T00:45:24;6.30;;;4.50;;
65275;SDS011;51875;49.994;14.052;2023-06-22T00:46:39;6.43;;;4.75;;
65275;SDS011;51875;49.994;14.052;2023-06-22T00:47:58;8.35;;;4.50;;
65275;SDS011;51875;49.994;14.052;2023-06-22T00:49:14;7.28;;;4.38;;
65275;SDS011;51875;49.994;14.052;2023-06-22T00:50:31;7.88;;;4.22;;
65275;SDS011;51875;49.994;14.052;2023-06-22T00:51:48;6.68;;;4.55;;
65275;SDS011;51875;49.994;14.052;2023-06-22T00:53:05;6.22;;;4.30;;
65275;SDS011;51875;49.994;14.052;2023-06-22T00:54:23;8.98;;;4.50;;
65275;SDS011;51875;49.994;14.052;2023-06-22T00:55:43;7.32;;;5.07;;
65275;SDS011;51875;49.994;14.052;2023-06-22T00:57:01;8.77;;;4.38;;
65275;SDS011;51875;49.994;14.052;2023-06-22T00:58:17;6.05;;;4.70;;
65275;SDS011;51875;49.994;14.052;2023-06-22T00:59:36;8.80;;;4.85;;
65275;SDS011;51875;49.994;14.052;2023-06-22T01:00:52;9.82;;;5.07;;
65275;SDS011;51875;49.994;14.052;2023-06-22T01:02:07;6.85;;;4.97;;
65275;SDS011;51875;49.994;14.052;2023-06-22T01:03:23;9.07;;;4.55;;
65275;SDS011;51875;49.994;14.052;2023-06-22T01:04:39;8.15;;;4.40;;
65275;SDS011;51875;49.994;14.052;2023-06-22T01:05:58;8.05;;;4.47;;
65275;SDS011;51875;49.994;14.052;2023-06-22T01:07:31;7.05;;;5.05;;
65275;SDS011;51875;49.994;14.052;2023-06-22T01:12:30;8.18;;;4.55;;
65275;SDS011;51875;49.994;14.052;2023-06-22T01:14:04;7.40;;;4.75;;
65275;SDS011;51875;49.994;14.052;2023-06-22T01:15:27;10.23;;;5.07;;
65275;SDS011;51875;49.994;14.052;2023-06-22T01:16:46;8.30;;;4.82;;
65275;SDS011;51875;49.994;14.052;2023-06-22T01:18:04;8.60;;;4.97;;
65275;SDS011;51875;49.994;14.052;2023-06-22T01:21:07;31.08;;;7.30;;
65275;SDS011;51875;49.994;14.052;2023-06-22T01:22:31;20.05;;;6.40;;
65275;SDS011;51875;49.994;14.052;2023-06-22T01:25:39;36.13;;;7.82;;
65275;SDS011;51875;49.994;14.052;2023-06-22T01:28:47;28.65;;;7.55;;
65275;SDS011;51875;49.994;14.052;2023-06-22T01:30:04;21.50;;;7.32;;
65275;SDS011;51875;49.994;14.052;2023-06-22T01:31:23;35.10;;;8.70;;
65275;SDS011;51875;49.994;14.052;2023-06-22T01:32:40;106.43;;;9.32;;
65275;SDS011;51875;49.994;14.052;2023-06-22T01:34:01;43.03;;;7.78;;
65275;SDS011;51875;49.994;14.052;2023-06-22T01:35:20;62.25;;;8.55;;
65275;SDS011;51875;49.994;14.052;2023-06-22T01:36:36;18.10;;;7.78;;
65275;SDS011;51875;49.994;14.052;2023-06-22T01:37:53;54.42;;;7.07;;
65275;SDS011;51875;49.994;14.052;2023-06-22T01:39:08;77.50;;;7.63;;
65275;SDS011;51875;49.994;14.052;2023-06-22T01:40:24;41.30;;;6.57;;
65275;SDS011;51875;49.994;14.052;2023-06-22T01:41:41;39.83;;;7.63;;
65275;SDS011;51875;49.994;14.052;2023-06-22T01:42:59;99.28;;;7.85;;
65275;SDS011;51875;49.994;14.052;2023-06-22T01:44:16;93.07;;;6.28;;
65275;SDS011;51875;49.994;14.052;2023-06-22T01:45:32;17.77;;;6.20;;
65275;SDS011;51875;49.994;14.052;2023-06-22T01:46:48;120.28;;;8.98;;
65275;SDS011;51875;49.994;14.052;2023-06-22T01:48:04;36.17;;;7.10;;
65275;SDS011;51875;49.994;14.052;2023-06-22T01:49:20;63.35;;;7.15;;
65275;SDS011;51875;49.994;14.052;2023-06-22T01:50:37;29.30;;;5.95;;
65275;SDS011;51875;49.994;14.052;2023-06-22T01:51:53;47.60;;;6.82;;
65275;SDS011;51875;49.994;14.052;2023-06-22T01:53:09;66.25;;;7.93;;
65275;SDS011;51875;49.994;14.052;2023-06-22T01:54:25;16.00;;;5.70;;
65275;SDS011;51875;49.994;14.052;2023-06-22T01:55:40;12.95;;;5.95;;
65275;SDS011;51875;49.994;14.052;2023-06-22T01:56:56;16.33;;;6.13;;
65275;SDS011;51875;49.994;14.052;2023-06-22T01:58:12;31.25;;;6.80;;
65275;SDS011;51875;49.994;14.052;2023-06-22T01:59:34;8.30;;;5.70;;
65275;SDS011;51875;49.994;14.052;2023-06-22T02:01:12;14.52;;;6.40;;
65275;SDS011;51875;49.994;14.052;2023-06-22T02:02:32;19.33;;;6.60;;
65275;SDS011;51875;49.994;14.052;2023-06-22T02:04:16;14.48;;;6.13;;
65275;SDS011;51875;49.994;14.052;2023-06-22T02:05:43;15.57;;;5.68;;
65275;SDS011;51875;49.994;14.052;2023-06-22T02:07:05;13.50;;;6.15;;
65275;SDS011;51875;49.994;14.052;2023-06-22T02:08:31;12.40;;;6.15;;
65275;SDS011;51875;49.994;14.052;2023-06-22T02:09:52;11.40;;;6.10;;
65275;SDS011;51875;49.994;14.052;2023-06-22T02:11:10;18.63;;;6.50;;
65275;SDS011;51875;49.994;14.052;2023-06-22T02:12:28;12.13;;;6.10;;
65275;SDS011;51875;49.994;14.052;2023-06-22T02:13:46;11.35;;;6.57;;
65275;SDS011;51875;49.994;14.052;2023-06-22T02:15:02;19.65;;;7.18;;
65275;SDS011;51875;49.994;14.052;2023-06-22T02:16:18;10.82;;;6.25;;
65275;SDS011;51875;49.994;14.052;2023-06-22T02:17:34;13.25;;;6.57;;
65275;SDS011;51875;49.994;14.052;2023-06-22T02:18:51;12.88;;;6.65;;
65275;SDS011;51875;49.994;14.052;2023-06-22T02:20:06;13.63;;;6.47;;
65275;SDS011;51875;49.994;14.052;2023-06-22T02:21:28;13.65;;;7.25;;
65275;SDS011;51875;49.994;14.052;2023-06-22T02:22:45;43.03;;;7.55;;
65275;SDS011;51875;49.994;14.052;2023-06-22T02:24:01;15.20;;;6.38;;
65275;SDS011;51875;49.994;14.052;2023-06-22T02:25:16;44.35;;;7.32;;
65275;SDS011;51875;49.994;14.052;2023-06-22T02:26:32;13.15;;;7.05;;
65275;SDS011;51875;49.994;14.052;2023-06-22T02:27:48;11.07;;;6.35;;
65275;SDS011;51875;49.994;14.052;2023-06-22T02:29:03;14.10;;;6.97;;
65275;SDS011;51875;49.994;14.052;2023-06-22T02:30:19;22.98;;;7.22;;
65275;SDS011;51875;49.994;14.052;2023-06-22T02:31:34;28.63;;;7.53;;
65275;SDS011;51875;49.994;14.052;2023-06-22T02:32:50;16.98;;;5.97;;
65275;SDS011;51875;49.994;14.052;2023-06-22T02:34:14;34.75;;;6.10;;
65275;SDS011;51875;49.994;14.052;2023-06-22T02:35:33;45.22;;;7.20;;
65275;SDS011;51875;49.994;14.052;2023-06-22T02:36:50;40.88;;;7.35;;
65275;SDS011;51875;49.994;14.052;2023-06-22T02:38:06;36.13;;;6.63;;
65275;SDS011;51875;49.994;14.052;2023-06-22T02:39:23;36.80;;;6.50;;
65275;SDS011;51875;49.994;14.052;2023-06-22T02:40:39;38.53;;;6.82;;
65275;SDS011;51875;49.994;14.052;2023-06-22T02:41:55;38.25;;;6.30;;
65275;SDS011;51875;49.994;14.052;2023-06-22T02:43:11;28.73;;;5.70;;
65275;SDS011;51875;49.994;14.052;2023-06-22T02:44:27;33.15;;;6.18;;
65275;SDS011;51875;49.994;14.052;2023-06-22T02:45:42;63.22;;;7.35;;
65275;SDS011;51875;49.994;14.052;2023-06-22T02:46:58;77.50;;;7.47;;
65275;SDS011;51875;49.994;14.052;2023-06-22T02:48:13;66.82;;;8.52;;
65275;SDS011;51875;49.994;14.052;2023-06-22T02:49:29;68.18;;;8.18;;
65275;SDS011;51875;49.994;14.052;2023-06-22T02:50:45;104.95;;;10.25;;
65275;SDS011;51875;49.994;14.052;2023-06-22T02:52:00;53.17;;;7.15;;
65275;SDS011;51875;49.994;14.052;2023-06-22T02:53:16;77.90;;;8.63;;
65275;SDS011;51875;49.994;14.052;2023-06-22T02:54:31;49.70;;;7.40;;
65275;SDS011;51875;49.994;14.052;2023-06-22T02:55:48;25.02;;;5.40;;
65275;SDS011;51875;49.994;14.052;2023-06-22T02:57:04;40.67;;;6.05;;
65275;SDS011;51875;49.994;14.052;2023-06-22T02:58:19;104.88;;;9.10;;
65275;SDS011;51875;49.994;14.052;2023-06-22T02:59:36;46.00;;;6.93;;
65275;SDS011;51875;49.994;14.052;2023-06-22T03:00:56;106.25;;;9.18;;
65275;SDS011;51875;49.994;14.052;2023-06-22T03:02:11;101.07;;;9.27;;
65275;SDS011;51875;49.994;14.052;2023-06-22T03:03:27;119.80;;;9.48;;
65275;SDS011;51875;49.994;14.052;2023-06-22T03:04:43;92.10;;;7.32;;
65275;SDS011;51875;49.994;14.052;2023-06-22T03:05:58;48.72;;;6.70;;
65275;SDS011;51875;49.994;14.052;2023-06-22T03:07:15;74.78;;;7.55;;
65275;SDS011;51875;49.994;14.052;2023-06-22T03:08:33;54.10;;;8.20;;
65275;SDS011;51875;49.994;14.052;2023-06-22T03:09:49;20.15;;;5.40;;
65275;SDS011;51875;49.994;14.052;2023-06-22T03:11:04;51.28;;;6.93;;
65275;SDS011;51875;49.994;14.052;2023-06-22T03:12:20;81.88;;;7.75;;
65275;SDS011;51875;49.994;14.052;2023-06-22T03:13:35;69.97;;;7.50;;
65275;SDS011;51875;49.994;14.052;2023-06-22T03:14:51;79.50;;;7.88;;
65275;SDS011;51875;49.994;14.052;2023-06-22T03:16:06;69.50;;;7.40;;
65275;SDS011;51875;49.994;14.052;2023-06-22T03:17:22;83.55;;;7.82;;
65275;SDS011;51875;49.994;14.052;2023-06-22T03:18:38;52.03;;;7.78;;
65275;SDS011;51875;49.994;14.052;2023-06-22T03:19:53;49.63;;;6.03;;
65275;SDS011;51875;49.994;14.052;2023-06-22T03:21:09;57.88;;;6.57;;
65275;SDS011;51875;49.994;14.052;2023-06-22T03:22:25;60.33;;;7.18;;
65275;SDS011;51875;49.994;14.052;2023-06-22T03:23:41;38.80;;;5.63;;
65275;SDS011;51875;49.994;14.052;2023-06-22T03:24:57;74.05;;;6.13;;
65275;SDS011;51875;49.994;14.052;2023-06-22T03:26:17;88.32;;;7.30;;
65275;SDS011;51875;49.994;14.052;2023-06-22T03:27:33;87.57;;;7.75;;
65275;SDS011;51875;49.994;14.052;2023-06-22T03:28:49;70.25;;;6.97;;
65275;SDS011;51875;49.994;14.052;2023-06-22T03:30:05;37.92;;;6.72;;
65275;SDS011;51875;49.994;14.052;2023-06-22T03:31:22;96.65;;;8.68;;
65275;SDS011;51875;49.994;14.052;2023-06-22T03:32:38;63.60;;;6.80;;
65275;SDS011;51875;49.994;14.052;2023-06-22T03:33:54;87.88;;;7.97;;
65275;SDS011;51875;49.994;14.052;2023-06-22T03:35:09;81.80;;;7.47;;
65275;SDS011;51875;49.994;14.052;2023-06-22T03:36:28;109.88;;;8.65;;
65275;SDS011;51875;49.994;14.052;2023-06-22T03:37:43;62.55;;;7.43;;
65275;SDS011;51875;49.994;14.052;2023-06-22T03:38:59;71.03;;;7.47;;
65275;SDS011;51875;49.994;14.052;2023-06-22T03:40:15;72.75;;;7.65;;
65275;SDS011;51875;49.994;14.052;2023-06-22T03:41:30;64.93;;;7.38;;
65275;SDS011;51875;49.994;14.052;2023-06-22T03:42:46;40.85;;;5.97;;
65275;SDS011;51875;49.994;14.052;2023-06-22T03:44:02;47.75;;;6.88;;
65275;SDS011;51875;49.994;14.052;2023-06-22T03:45:17;20.88;;;6.05;;
65275;SDS011;51875;49.994;14.052;2023-06-22T03:46:33;13.73;;;6.35;;
65275;SDS011;51875;49.994;14.052;2023-06-22T03:47:48;15.85;;;6.25;;
65275;SDS011;51875;49.994;14.052;2023-06-22T03:49:04;11.95;;;6.15;;
65275;SDS011;51875;49.994;14.052;2023-06-22T03:50:19;31.48;;;7.45;;
65275;SDS011;51875;49.994;14.052;2023-06-22T03:51:38;44.67;;;6.65;;
65275;SDS011;51875;49.994;14.052;2023-06-22T03:52:53;25.90;;;6.30;;
65275;SDS011;51875;49.994;14.052;2023-06-22T03:54:09;34.42;;;6.65;;
65275;SDS011;51875;49.994;14.052;2023-06-22T03:55:25;29.42;;;5.93;;
65275;SDS011;51875;49.994;14.052;2023-06-22T03:56:40;22.33;;;5.65;;
65275;SDS011;51875;49.994;14.052;2023-06-22T03:57:56;40.38;;;5.95;;
65275;SDS011;51875;49.994;14.052;2023-06-22T03:59:12;21.00;;;5.03;;
65275;SDS011;51875;49.994;14.052;2023-06-22T04:00:28;36.17;;;5.88;;
65275;SDS011;51875;49.994;14.052;2023-06-22T04:01:43;26.30;;;5.40;;
65275;SDS011;51875;49.994;14.052;2023-06-22T04:02:59;39.65;;;6.40;;
65275;SDS011;51875;49.994;14.052;2023-06-22T04:04:15;57.28;;;6.13;;
65275;SDS011;51875;49.994;14.052;2023-06-22T04:05:32;56.45;;;6.68;;
65275;SDS011;51875;49.994;14.052;2023-06-22T04:06:48;70.18;;;6.80;;
65275;SDS011;51875;49.994;14.052;2023-06-22T04:08:03;61.47;;;7.28;;
65275;SDS011;51875;49.994;14.052;2023-06-22T04:09:19;63.95;;;6.88;;
65275;SDS011;51875;49.994;14.052;2023-06-22T04:10:36;53.95;;;6.40;;
65275;SDS011;51875;49.994;14.052;2023-06-22T04:11:52;94.72;;;7.32;;
65275;SDS011;51875;49.994;14.052;2023-06-22T04:13:07;60.15;;;6.95;;
65275;SDS011;51875;49.994;14.052;2023-06-22T04:14:23;61.67;;;6.53;;
65275;SDS011;51875;49.994;14.052;2023-06-22T04:15:39;67.32;;;6.65;;
65275;SDS011;51875;49.994;14.052;2023-06-22T04:16:54;51.22;;;5.65;;
65275;SDS011;51875;49.994;14.052;2023-06-22T04:18:10;47.35;;;6.32;;
65275;SDS011;51875;49.994;14.052;2023-06-22T04:19:26;44.75;;;6.20;;
65275;SDS011;51875;49.994;14.052;2023-06-22T04:20:41;55.80;;;5.88;;
65275;SDS011;51875;49.994;14.052;2023-06-22T04:21:57;41.83;;;5.78;;
65275;SDS011;51875;49.994;14.052;2023-06-22T04:23:12;64.75;;;7.25;;
65275;SDS011;51875;49.994;14.052;2023-06-22T04:24:28;52.72;;;6.85;;
65275;SDS011;51875;49.994;14.052;2023-06-22T04:38:04;112.75;;;11.75;;
65275;SDS011;51875;49.994;14.052;2023-06-22T04:39:20;69.50;;;6.78;;
65275;SDS011;51875;49.994;14.052;2023-06-22T04:40:35;114.53;;;10.35;;
65275;SDS011;51875;49.994;14.052;2023-06-22T04:41:51;74.22;;;7.22;;
65275;SDS011;51875;49.994;14.052;2023-06-22T04:43:07;76.03;;;7.43;;
65275;SDS011;51875;49.994;14.052;2023-06-22T04:44:25;77.47;;;8.75;;
65275;SDS011;51875;49.994;14.052;2023-06-22T04:45:41;76.40;;;7.40;;
65275;SDS011;51875;49.994;14.052;2023-06-22T04:46:59;176.82;;;12.35;;
65275;SDS011;51875;49.994;14.052;2023-06-22T04:48:17;127.35;;;10.52;;
65275;SDS011;51875;49.994;14.052;2023-06-22T04:49:33;47.67;;;6.25;;
65275;SDS011;51875;49.994;14.052;2023-06-22T04:50:53;69.72;;;7.05;;
65275;SDS011;51875;49.994;14.052;2023-06-22T04:52:09;119.40;;;8.85;;
65275;SDS011;51875;49.994;14.052;2023-06-22T04:53:27;64.03;;;7.28;;
65275;SDS011;51875;49.994;14.052;2023-06-22T04:54:45;51.28;;;6.53;;
65275;SDS011;51875;49.994;14.052;2023-06-22T04:56:02;66.95;;;6.38;;
65275;SDS011;51875;49.994;14.052;2023-06-22T04:57:19;107.43;;;7.85;;
65275;SDS011;51875;49.994;14.052;2023-06-22T04:58:35;89.68;;;7.93;;
65275;SDS011;51875;49.994;14.052;2023-06-22T04:59:50;119.45;;;8.98;;
65275;SDS011;51875;49.994;14.052;2023-06-22T05:01:06;41.65;;;6.90;;
65275;SDS011;51875;49.994;14.052;2023-06-22T05:02:24;34.90;;;7.25;;
65275;SDS011;51875;49.994;14.052;2023-06-22T05:03:42;75.30;;;7.90;;
65275;SDS011;51875;49.994;14.052;2023-06-22T05:04:59;60.03;;;6.70;;
65275;SDS011;51875;49.994;14.052;2023-06-22T05:06:14;115.28;;;9.13;;
65275;SDS011;51875;49.994;14.052;2023-06-22T05:07:30;158.60;;;11.13;;
65275;SDS011;51875;49.994;14.052;2023-06-22T05:08:47;90.40;;;8.73;;
65275;SDS011;51875;49.994;14.052;2023-06-22T05:10:03;70.53;;;7.80;;
65275;SDS011;51875;49.994;14.052;2023-06-22T05:11:19;49.20;;;6.40;;
65275;SDS011;51875;49.994;14.052;2023-06-22T05:12:34;47.45;;;7.72;;
65275;SDS011;51875;49.994;14.052;2023-06-22T05:13:50;32.45;;;6.30;;
65275;SDS011;51875;49.994;14.052;2023-06-22T05:15:06;103.38;;;10.57;;
65275;SDS011;51875;49.994;14.052;2023-06-22T05:16:23;66.18;;;8.55;;
65275;SDS011;51875;49.994;14.052;2023-06-22T05:17:39;21.20;;;6.78;;
65275;SDS011;51875;49.994;14.052;2023-06-22T05:18:57;38.00;;;6.85;;
65275;SDS011;51875;49.994;14.052;2023-06-22T05:20:13;36.05;;;7.32;;
65275;SDS011;51875;49.994;14.052;2023-06-22T05:21:30;43.60;;;7.38;;
65275;SDS011;51875;49.994;14.052;2023-06-22T05:22:46;29.48;;;6.22;;
65275;SDS011;51875;49.994;14.052;2023-06-22T05:24:01;31.63;;;7.13;;
65275;SDS011;51875;49.994;14.052;2023-06-22T05:25:18;26.40;;;6.80;;
65275;SDS011;51875;49.994;14.052;2023-06-22T05:26:34;29.52;;;6.20;;
65275;SDS011;51875;49.994;14.052;2023-06-22T05:27:49;35.03;;;6.93;;
65275;SDS011;51875;49.994;14.052;2023-06-22T05:29:07;19.20;;;6.88;;
65275;SDS011;51875;49.994;14.052;2023-06-22T05:30:23;14.93;;;5.85;;
65275;SDS011;51875;49.994;14.052;2023-06-22T05:31:38;15.52;;;7.03;;
65275;SDS011;51875;49.994;14.052;2023-06-22T05:32:55;30.65;;;7.80;;
65275;SDS011;51875;49.994;14.052;2023-06-22T05:34:11;46.20;;;8.10;;
65275;SDS011;51875;49.994;14.052;2023-06-22T05:35:26;23.08;;;7.22;;
65275;SDS011;51875;49.994;14.052;2023-06-22T05:36:42;12.43;;;6.88;;
65275;SDS011;51875;49.994;14.052;2023-06-22T05:37:59;10.65;;;7.13;;
65275;SDS011;51875;49.994;14.052;2023-06-22T05:39:14;14.70;;;7.40;;
65275;SDS011;51875;49.994;14.052;2023-06-22T05:40:30;12.43;;;7.55;;
65275;SDS011;51875;49.994;14.052;2023-06-22T05:41:46;14.52;;;8.10;;
65275;SDS011;51875;49.994;14.052;2023-06-22T05:43:01;11.45;;;7.43;;
65275;SDS011;51875;49.994;14.052;2023-06-22T05:44:18;12.25;;;7.43;;
65275;SDS011;51875;49.994;14.052;2023-06-22T05:45:33;11.07;;;7.28;;
65275;SDS011;51875;49.994;14.052;2023-06-22T05:46:49;21.60;;;7.97;;
65275;SDS011;51875;49.994;14.052;2023-06-22T05:48:05;17.92;;;7.78;;
65275;SDS011;51875;49.994;14.052;2023-06-22T05:49:20;18.90;;;7.97;;
65275;SDS011;51875;49.994;14.052;2023-06-22T05:50:37;21.52;;;7.97;;
65275;SDS011;51875;49.994;14.052;2023-06-22T05:51:53;50.30;;;8.57;;
65275;SDS011;51875;49.994;14.052;2023-06-22T05:53:08;14.30;;;8.23;;
65275;SDS011;51875;49.994;14.052;2023-06-22T05:54:24;11.77;;;8.43;;
65275;SDS011;51875;49.994;14.052;2023-06-22T05:55:39;37.38;;;8.45;;
65275;SDS011;51875;49.994;14.052;2023-06-22T05:56:56;41.95;;;8.35;;
65275;SDS011;51875;49.994;14.052;2023-06-22T05:58:11;20.13;;;7.82;;
65275;SDS011;51875;49.994;14.052;2023-06-22T05:59:28;11.93;;;7.80;;
65275;SDS011;51875;49.994;14.052;2023-06-22T06:00:44;17.30;;;8.00;;
65275;SDS011;51875;49.994;14.052;2023-06-22T06:01:59;10.15;;;7.57;;
65275;SDS011;51875;49.994;14.052;2023-06-22T06:03:15;11.50;;;7.63;;
65275;SDS011;51875;49.994;14.052;2023-06-22T06:04:32;12.35;;;7.78;;
65275;SDS011;51875;49.994;14.052;2023-06-22T06:05:47;12.77;;;7.18;;
65275;SDS011;51875;49.994;14.052;2023-06-22T06:07:03;10.63;;;7.53;;
65275;SDS011;51875;49.994;14.052;2023-06-22T06:08:18;10.43;;;7.40;;
65275;SDS011;51875;49.994;14.052;2023-06-22T06:09:34;10.07;;;7.72;;
65275;SDS011;51875;49.994;14.052;2023-06-22T06:10:50;11.23;;;7.43;;
65275;SDS011;51875;49.994;14.052;2023-06-22T06:12:08;9.70;;;7.47;;
65275;SDS011;51875;49.994;14.052;2023-06-22T06:13:24;10.75;;;7.65;;
65275;SDS011;51875;49.994;14.052;2023-06-22T06:14:39;10.38;;;7.07;;
65275;SDS011;51875;49.994;14.052;2023-06-22T06:15:55;9.80;;;7.65;;
65275;SDS011;51875;49.994;14.052;2023-06-22T06:17:11;9.32;;;7.65;;
65275;SDS011;51875;49.994;14.052;2023-06-22T06:18:27;10.80;;;7.43;;
65275;SDS011;51875;49.994;14.052;2023-06-22T06:19:42;9.93;;;7.38;;
65275;SDS011;51875;49.994;14.052;2023-06-22T06:20:58;9.48;;;7.75;;
65275;SDS011;51875;49.994;14.052;2023-06-22T06:22:13;8.75;;;6.90;;
65275;SDS011;51875;49.994;14.052;2023-06-22T06:23:29;9.60;;;6.50;;
65275;SDS011;51875;49.994;14.052;2023-06-22T06:24:45;9.23;;;6.47;;
65275;SDS011;51875;49.994;14.052;2023-06-22T06:26:01;7.43;;;6.30;;
65275;SDS011;51875;49.994;14.052;2023-06-22T06:27:16;7.85;;;6.57;;
65275;SDS011;51875;49.994;14.052;2023-06-22T06:28:34;8.45;;;6.63;;
65275;SDS011;51875;49.994;14.052;2023-06-22T06:29:50;8.20;;;6.65;;
65275;SDS011;51875;49.994;14.052;2023-06-22T06:31:06;8.48;;;6.55;;
65275;SDS011;51875;49.994;14.052;2023-06-22T06:32:22;9.15;;;6.90;;
65275;SDS011;51875;49.994;14.052;2023-06-22T06:33:38;9.40;;;6.75;;
65275;SDS011;51875;49.994;14.052;2023-06-22T06:34:53;7.72;;;5.90;;
65275;SDS011;51875;49.994;14.052;2023-06-22T06:36:09;7.78;;;6.20;;
65275;SDS011;51875;49.994;14.052;2023-06-22T06:37:24;8.85;;;5.85;;
65275;SDS011;51875;49.994;14.052;2023-06-22T06:38:40;11.32;;;6.30;;
65275;SDS011;51875;49.994;14.052;2023-06-22T06:39:55;7.35;;;6.13;;
65275;SDS011;51875;49.994;14.052;2023-06-22T06:41:11;8.85;;;5.85;;
65275;SDS011;51875;49.994;14.052;2023-06-22T06:42:27;9.60;;;6.45;;
65275;SDS011;51875;49.994;14.052;2023-06-22T06:43:42;8.45;;;6.00;;
65275;SDS011;51875;49.994;14.052;2023-06-22T06:44:58;7.55;;;6.75;;
65275;SDS011;51875;49.994;14.052;2023-06-22T06:46:14;8.43;;;6.30;;
65275;SDS011;51875;49.994;14.052;2023-06-22T06:47:29;8.88;;;7.00;;
65275;SDS011;51875;49.994;14.052;2023-06-22T06:48:45;8.82;;;6.47;;
65275;SDS011;51875;49.994;14.052;2023-06-22T06:50:02;7.55;;;6.47;;
65275;SDS011;51875;49.994;14.052;2023-06-22T06:51:19;6.72;;;5.78;;
65275;SDS011;51875;49.994;14.052;2023-06-22T06:52:34;7.85;;;6.45;;
65275;SDS011;51875;49.994;14.052;2023-06-22T06:53:50;7.40;;;6.18;;
65275;SDS011;51875;49.994;14.052;2023-06-22T06:55:06;9.05;;;6.40;;
65275;SDS011;51875;49.994;14.052;2023-06-22T06:56:27;8.38;;;5.90;;
65275;SDS011;51875;49.994;14.052;2023-06-22T06:57:43;6.43;;;5.32;;
65275;SDS011;51875;49.994;14.052;2023-06-22T06:58:58;10.77;;;6.13;;
65275;SDS011;51875;49.994;14.052;2023-06-22T07:00:14;7.85;;;6.20;;
65275;SDS011;51875;49.994;14.052;2023-06-22T07:01:30;7.60;;;5.68;;
65275;SDS011;51875;49.994;14.052;2023-06-22T07:02:48;7.75;;;6.50;;
65275;SDS011;51875;49.994;14.052;2023-06-22T07:04:04;9.35;;;6.10;;
65275;SDS011;51875;49.994;14.052;2023-06-22T07:05:19;10.23;;;6.63;;
65275;SDS011;51875;49.994;14.052;2023-06-22T07:06:35;7.72;;;6.22;;
65275;SDS011;51875;49.994;14.052;2023-06-22T07:07:51;8.30;;;5.97;;
65275;SDS011;51875;49.994;14.052;2023-06-22T07:09:08;7.95;;;6.90;;
65275;SDS011;51875;49.994;14.052;2023-06-22T07:10:24;8.23;;;6.65;;
65275;SDS011;51875;49.994;14.052;2023-06-22T07:11:39;8.88;;;6.60;;
65275;SDS011;51875;49.994;14.052;2023-06-22T07:12:55;8.60;;;6.40;;
65275;SDS011;51875;49.994;14.052;2023-06-22T07:14:12;8.23;;;6.72;;
65275;SDS011;51875;49.994;14.052;2023-06-22T07:15:27;8.45;;;6.65;;
65275;SDS011;51875;49.994;14.052;2023-06-22T07:16:43;9.68;;;6.63;;
65275;SDS011;51875;49.994;14.052;2023-06-22T07:17:58;8.82;;;6.93;;
65275;SDS011;51875;49.994;14.052;2023-06-22T07:19:14;9.90;;;7.10;;
65275;SDS011;51875;49.994;14.052;2023-06-22T07:20:30;10.27;;;6.63;;
65275;SDS011;51875;49.994;14.052;2023-06-22T07:21:45;8.20;;;7.00;;
65275;SDS011;51875;49.994;14.052;2023-06-22T07:23:01;8.70;;;6.82;;
65275;SDS011;51875;49.994;14.052;2023-06-22T07:24:16;10.57;;;6.60;;
65275;SDS011;51875;49.994;14.052;2023-06-22T07:25:32;7.38;;;6.53;;
65275;SDS011;51875;49.994;14.052;2023-06-22T07:26:48;8.77;;;7.18;;
65275;SDS011;51875;49.994;14.052;2023-06-22T07:28:06;10.18;;;7.25;;
65275;SDS011;51875;49.994;14.052;2023-06-22T07:29:22;10.73;;;7.25;;
65275;SDS011;51875;49.994;14.052;2023-06-22T07:30:38;8.98;;;7.10;;
65275;SDS011;51875;49.994;14.052;2023-06-22T07:31:53;8.60;;;6.95;;
65275;SDS011;51875;49.994;14.052;2023-06-22T07:33:11;7.78;;;6.80;;
65275;SDS011;51875;49.994;14.052;2023-06-22T07:34:27;9.18;;;6.78;;
65275;SDS011;51875;49.994;14.052;2023-06-22T07:35:42;11.13;;;7.05;;
65275;SDS011;51875;49.994;14.052;2023-06-22T07:36:57;11.55;;;7.65;;
65275;SDS011;51875;49.994;14.052;2023-06-22T07:38:13;9.50;;;6.43;;
65275;SDS011;51875;49.994;14.052;2023-06-22T07:39:30;8.90;;;7.28;;
65275;SDS011;51875;49.994;14.052;2023-06-22T07:40:46;11.27;;;7.38;;
65275;SDS011;51875;49.994;14.052;2023-06-22T07:42:02;14.60;;;7.38;;
65275;SDS011;51875;49.994;14.052;2023-06-22T07:43:18;10.05;;;7.68;;
65275;SDS011;51875;49.994;14.052;2023-06-22T07:44:33;10.00;;;6.90;;
65275;SDS011;51875;49.994;14.052;2023-06-22T07:45:49;12.43;;;7.82;;
65275;SDS011;51875;49.994;14.052;2023-06-22T07:47:08;12.50;;;8.00;;
65275;SDS011;51875;49.994;14.052;2023-06-22T07:48:23;12.30;;;7.60;;
65275;SDS011;51875;49.994;14.052;2023-06-22T07:49:39;11.32;;;7.25;;
65275;SDS011;51875;49.994;14.052;2023-06-22T07:50:55;10.43;;;7.47;;
65275;SDS011;51875;49.994;14.052;2023-06-22T07:52:10;9.20;;;6.60;;